Time;durP1;ratioP1;P1;durP2;ratioP2;P2;SDS_P1;SDS_P2;PMS_P1;PMS_P2;Temp;Humidity;BMP_temperature;BMP_pressure;BME280_temperature;BME280_humidity;BME280_pressure;Samples;Min_cycle;Max_cycle;Signal;HPM_P1;HPM_P2
2022/10/21 00:00:35;;;;;;;14.23;10.48;;;;;;;15.49;100.00;100718.69;5277628;28;20017;-76
2022/10/21 00:03:08;;;;;;;13.00;10.68;;;;;;;15.47;100.00;100720.66;5274992;28;20024;-76
2022/10/21 00:05:39;;;;;;;13.55;10.90;;;;;;;15.41;100.00;100705.47;5278061;28;20044;-76
2022/10/21 00:08:11;;;;;;;12.65;11.07;;;;;;;15.36;100.00;100709.63;5278532;28;20066;-75
2022/10/21 00:10:42;;;;;;;11.73;10.20;;;;;;;15.26;100.00;100713.22;5277441;28;20027;-75
2022/10/21 00:13:13;;;;;;;12.25;10.57;;;;;;;15.21;100.00;100702.34;5275762;28;20037;-75
2022/10/21 00:15:45;;;;;;;16.35;11.23;;;;;;;15.18;100.00;100707.94;5279410;28;20013;-75
2022/10/21 00:18:16;;;;;;;15.13;10.88;;;;;;;15.22;100.00;100711.06;5275595;28;20017;-76
2022/10/21 00:20:47;;;;;;;12.50;11.07;;;;;;;15.21;100.00;100707.63;5278651;28;20043;-75
2022/10/21 00:23:18;;;;;;;14.60;10.50;;;;;;;15.19;100.00;100692.94;5276543;28;20037;-75
2022/10/21 00:25:55;;;;;;;16.45;11.48;;;;;;;15.22;100.00;100688.16;5276219;28;20032;-76
2022/10/21 00:28:27;;;;;;;14.82;12.10;;;;;;;15.15;100.00;100683.69;5277251;28;20032;-76
2022/10/21 00:30:58;;;;;;;16.08;12.65;;;;;;;15.14;100.00;100677.59;5276485;28;20075;-75
2022/10/21 00:33:30;;;;;;;13.77;11.45;;;;;;;15.18;100.00;100684.19;5276032;28;20446;-75
2022/10/21 00:36:02;;;;;;;16.00;11.73;;;;;;;15.14;100.00;100682.88;5277857;28;20488;-75
2022/10/21 00:38:35;;;;;;;20.70;11.88;;;;;;;15.20;100.00;100686.69;5277364;28;20060;-76
2022/10/21 00:41:06;;;;;;;16.75;12.45;;;;;;;15.26;100.00;100688.66;5277322;28;20039;-75
2022/10/21 00:44:00;;;;;;;14.40;11.80;;;;;;;15.43;100.00;100686.84;5274683;28;20024;-75
2022/10/21 00:46:51;;;;;;;15.05;12.27;;;;;;;15.43;100.00;100686.84;5276048;28;20024;-75
2022/10/21 00:49:33;;;;;;;17.55;12.13;;;;;;;15.41;100.00;100688.81;5274494;28;20103;-75
2022/10/21 00:52:10;;;;;;;16.70;11.93;;;;;;;15.27;100.00;100690.31;5276382;28;20024;-75
2022/10/21 00:54:43;;;;;;;13.93;12.38;;;;;;;15.25;100.00;100679.09;5276347;28;21095;-75
2022/10/21 00:57:17;;;;;;;17.00;12.90;;;;;;;15.27;100.00;100672.66;5277922;28;20028;-75
2022/10/21 00:59:53;;;;;;;18.60;12.75;;;;;;;15.32;100.00;100665.06;5277400;28;20114;-75
2022/10/21 01:02:25;;;;;;;15.98;12.23;;;;;;;15.26;100.00;100668.34;5272872;28;20081;-75
2022/10/21 01:05:00;;;;;;;18.50;11.97;;;;;;;15.33;100.00;100671.97;5275065;28;20141;-76
2022/10/21 01:07:31;;;;;;;17.77;12.88;;;;;;;15.26;100.00;100659.63;5275347;28;20032;-75
2022/10/21 01:10:04;;;;;;;17.35;13.20;;;;;;;15.25;100.00;100656.16;5275445;28;20531;-75
2022/10/21 01:12:49;;;;;;;18.20;12.55;;;;;;;15.43;100.00;100649.88;5275833;28;20473;-75
2022/10/21 01:16:10;;;;;;;18.33;13.07;;;;;;;15.48;100.00;100658.13;5276125;28;20081;-75
2022/10/21 01:18:59;;;;;;;18.33;11.82;;;;;;;15.31;100.00;100658.16;5275292;28;20036;-75
2022/10/21 01:21:42;;;;;;;17.42;11.65;;;;;;;15.26;100.00;100654.34;5274586;28;20039;-75
2022/10/21 01:24:28;;;;;;;17.95;12.45;;;;;;;15.44;100.00;100641.78;5277324;28;20051;-75
2022/10/21 01:27:09;;;;;;;14.13;11.82;;;;;;;15.23;100.00;100630.94;5273777;28;20036;-75
2022/10/21 01:30:05;;;;;;;14.95;11.50;;;;;;;15.32;100.00;100643.13;5276321;28;20025;-75
2022/10/21 01:32:55;;;;;;;12.40;11.00;;;;;;;15.29;100.00;100635.53;5275897;28;20447;-75
2022/10/21 01:35:52;;;;;;;15.50;10.95;;;;;;;15.16;100.00;100630.75;5276364;28;20028;-75
2022/10/21 01:38:23;;;;;;;18.67;11.27;;;;;;;15.08;100.00;100622.84;5277072;28;20028;-76
2022/10/21 01:41:07;;;;;;;17.00;11.80;;;;;;;15.18;100.00;100626.13;5275851;28;20047;-75
2022/10/21 01:43:45;;;;;;;13.88;11.50;;;;;;;15.03;100.00;100612.78;5274944;28;20029;-75
2022/10/21 01:46:24;;;;;;;16.80;11.07;;;;;;;15.09;100.00;100604.22;5277091;28;20020;-76
2022/10/21 01:49:03;;;;;;;14.38;11.98;;;;;;;15.08;100.00;100615.75;5276313;28;20032;-75
2022/10/21 01:51:36;;;;;;;14.32;10.48;;;;;;;14.98;100.00;100601.91;5274106;28;20523;-75
2022/10/21 01:54:21;;;;;;;14.77;10.65;;;;;;;15.15;100.00;100601.88;5275010;28;20492;-75
2022/10/21 01:56:54;;;;;;;12.77;10.57;;;;;;;14.95;100.00;100602.22;5275706;28;20036;-75
2022/10/21 01:59:29;;;;;;;13.55;11.15;;;;;;;15.05;100.00;100599.44;5275387;28;20508;-75
2022/10/21 02:02:05;;;;;;;13.80;10.32;;;;;;;15.03;100.00;100588.22;5273325;28;20474;-75
2022/10/21 02:04:40;;;;;;;11.90;10.40;;;;;;;15.03;100.00;100585.56;5274704;28;20028;-75
2022/10/21 02:07:12;;;;;;;15.88;11.55;;;;;;;14.86;100.00;100592.66;5275816;28;20163;-75
2022/10/21 02:09:43;;;;;;;15.50;10.63;;;;;;;14.90;100.00;100590.53;5275302;28;20485;-75
2022/10/21 02:12:15;;;;;;;12.85;10.75;;;;;;;14.93;100.00;100596.31;5274765;28;20024;-76
2022/10/21 02:14:51;;;;;;;16.05;10.20;;;;;;;14.92;100.00;100577.97;5273714;28;20031;-76
2022/10/21 02:17:25;;;;;;;18.10;11.00;;;;;;;14.90;100.00;100577.34;5275765;28;20028;-76
2022/10/21 02:20:02;;;;;;;11.95;10.40;;;;;;;14.85;100.00;100567.28;5275660;28;20070;-76
2022/10/21 02:22:35;;;;;;;15.25;10.15;;;;;;;14.72;100.00;100570.41;5273998;28;20029;-76
2022/10/21 02:25:06;;;;;;;;;;;;;;;15.33;100.00;100566.41;5274882;28;20032;-75
2022/10/21 02:27:38;;;;;;;17.38;10.05;;;;;;;14.76;100.00;100566.44;5275448;28;20415;-76
2022/10/21 02:30:09;;;;;;;13.00;10.48;;;;;;;14.67;100.00;100572.72;5275860;28;20083;-75
2022/10/21 02:33:02;;;;;;;12.75;9.98;;;;;;;14.88;100.00;100579.31;5274767;28;20543;-75
2022/10/21 02:35:55;;;;;;;14.82;9.30;;;;;;;14.71;100.00;100586.41;5275128;28;20466;-75
2022/10/21 02:38:32;;;;;;;12.75;9.88;;;;;;;14.71;100.00;100575.84;5276100;28;20031;-76
2022/10/21 02:41:07;;;;;;;13.95;9.95;;;;;;;14.73;100.00;100574.66;5275866;28;20039;-75
2022/10/21 02:43:50;;;;;;;14.70;10.27;;;;;;;14.73;100.00;100579.13;5273646;28;20043;-75
2022/10/21 02:46:21;;;;;;;11.20;9.13;;;;;;;14.67;100.00;100572.72;5273591;28;20452;-76
2022/10/21 02:48:52;;;;;;;12.88;9.60;;;;;;;14.73;100.00;100568.59;5274811;28;20033;-76
2022/10/21 02:51:23;;;;;;;16.98;9.48;;;;;;;14.75;100.00;100570.06;5272918;28;20035;-75
2022/10/21 02:53:56;;;;;;;12.93;9.18;;;;;;;14.68;100.00;100558.53;5274274;28;20024;-75
2022/10/21 02:56:27;;;;;;;10.88;8.80;;;;;;;14.66;100.00;100554.41;5274684;28;20048;-75
2022/10/21 02:58:58;;;;;;;11.90;8.57;;;;;;;14.58;100.00;100552.56;5274160;28;20063;-75
2022/10/21 03:01:29;;;;;;;12.68;8.80;;;;;;;14.68;100.00;100555.91;5275037;28;20165;-76
2022/10/21 03:04:01;;;;;;;12.40;8.38;;;;;;;14.62;100.00;100559.16;5275756;28;20039;-76
2022/10/21 03:06:32;;;;;;;11.35;8.98;;;;;;;14.60;100.00;100553.25;5275315;28;20028;-76
2022/10/21 03:09:04;;;;;;;12.38;8.95;;;;;;;14.59;100.00;100562.97;5275149;28;20034;-75
2022/10/21 03:11:35;;;;;;;11.52;8.82;;;;;;;14.57;100.00;100559.66;5274060;28;20555;-76
2022/10/21 03:14:06;;;;;;;10.52;8.35;;;;;;;14.56;100.00;100552.75;5278758;28;20377;-75
2022/10/21 03:16:37;;;;;;;10.48;8.00;;;;;;;14.57;100.00;100550.94;5279183;28;20066;-75
2022/10/21 03:19:10;;;;;;;12.48;8.23;;;;;;;14.49;100.00;100541.22;5279640;28;20086;-75
2022/10/21 03:21:41;;;;;;;10.65;8.38;;;;;;;14.53;100.00;100553.06;5277441;28;20354;-75
2022/10/21 03:24:12;;;;;;;11.18;8.07;;;;;;;14.51;100.00;100559.50;5278112;28;20090;-75
2022/10/21 03:26:43;;;;;;;10.65;7.75;;;;;;;14.47;100.00;100560.75;5279109;28;20435;-75
2022/10/21 03:29:15;;;;;;;11.93;7.55;;;;;;;14.46;100.00;100567.84;5279412;28;20085;-75
2022/10/21 03:31:46;;;;;;;15.35;8.68;;;;;;;14.39;100.00;100558.94;5278409;28;20024;-75
2022/10/21 03:34:17;;;;;;;9.77;7.88;;;;;;;14.43;100.00;100567.34;5278469;28;20032;-75
2022/10/21 03:36:48;;;;;;;9.98;7.63;;;;;;;14.41;100.00;100558.81;5279136;28;20649;-75
2022/10/21 03:39:20;;;;;;;11.32;8.40;;;;;;;14.38;100.00;100548.56;5279040;28;20032;-75
2022/10/21 03:41:51;;;;;;;11.48;7.60;;;;;;;14.38;100.00;100548.56;5276578;28;20028;-75
2022/10/21 03:44:22;;;;;;;10.82;7.55;;;;;;;14.38;100.00;100549.41;5278962;28;20035;-75
2022/10/21 03:46:53;;;;;;;10.40;7.88;;;;;;;14.35;100.00;100553.16;5277761;28;20020;-75
2022/10/21 03:49:25;;;;;;;10.77;7.90;;;;;;;14.31;100.00;100554.47;5278726;28;20028;-76
2022/10/21 03:51:56;;;;;;;13.75;8.15;;;;;;;14.34;100.00;100548.06;5274704;28;20016;-76
2022/10/21 03:54:27;;;;;;;13.23;7.85;;;;;;;14.31;100.00;100545.75;5273758;28;20044;-76
2022/10/21 03:56:59;;;;;;;12.63;7.68;;;;;;;14.30;100.00;100558.09;5277586;28;20035;-76
2022/10/21 03:59:30;;;;;;;8.30;7.13;;;;;;;14.28;100.00;100543.44;5277835;28;20018;-76
2022/10/21 04:02:01;;;;;;;10.75;6.78;;;;;;;14.29;100.00;100542.47;5274674;28;20024;-76
2022/10/21 04:04:32;;;;;;;8.63;7.65;;;;;;;14.13;100.00;100535.34;5277494;28;20020;-76
2022/10/21 04:07:04;;;;;;;13.18;7.70;;;;;;;14.22;100.00;100550.19;5277773;28;20060;-76
2022/10/21 04:09:35;;;;;;;11.25;6.78;;;;;;;14.22;100.00;100549.38;5277375;28;20028;-76
2022/10/21 04:12:06;;;;;;;11.00;6.82;;;;;;;14.20;100.00;100553.97;5276846;28;20028;-76
2022/10/21 04:14:37;;;;;;;12.20;6.57;;;;;;;14.11;100.00;100539.94;5277682;28;20017;-76
2022/10/21 04:17:09;;;;;;;9.02;6.93;;;;;;;14.12;100.00;100552.94;5278602;28;20025;-76
2022/10/21 04:19:40;;;;;;;8.60;5.97;;;;;;;14.13;100.00;100559.06;5278206;28;20017;-76
2022/10/21 04:22:11;;;;;;;10.23;6.63;;;;;;;14.12;100.00;100557.41;5275844;28;20025;-76
2022/10/21 04:24:42;;;;;;;11.73;6.50;;;;;;;14.07;100.00;100547.34;5276540;28;20032;-76
2022/10/21 04:27:14;;;;;;;7.50;6.10;;;;;;;14.07;100.00;100544.72;5277436;28;20024;-76
2022/10/21 04:29:45;;;;;;;8.48;5.50;;;;;;;14.05;100.00;100551.13;5277517;28;20513;-76
2022/10/21 04:32:16;;;;;;;10.73;5.88;;;;;;;14.05;100.00;100554.59;5275843;28;20024;-76
2022/10/21 04:34:47;;;;;;;7.53;5.63;;;;;;;14.06;100.00;100561.50;5277692;28;20021;-76
2022/10/21 04:37:19;;;;;;;11.32;5.78;;;;;;;14.03;100.00;100558.38;5276238;28;20032;-76
2022/10/21 04:39:50;;;;;;;9.15;5.32;;;;;;;14.04;100.00;100558.19;5277995;28;20464;-76
2022/10/21 04:42:22;;;;;;;8.02;5.65;;;;;;;14.00;100.00;100563.94;5276219;28;20051;-76
2022/10/21 04:44:53;;;;;;;8.13;5.55;;;;;;;14.00;100.00;100567.41;5277966;28;20020;-76
2022/10/21 04:47:24;;;;;;;6.32;4.53;;;;;;;14.05;100.00;100570.41;5277449;28;20040;-76
2022/10/21 04:49:56;;;;;;;7.70;4.22;;;;;;;14.01;100.00;100569.03;5277631;28;20036;-76
2022/10/21 04:52:27;;;;;;;9.00;5.18;;;;;;;14.00;100.00;100563.94;5276632;28;20036;-76
2022/10/21 04:54:58;;;;;;;8.50;5.35;;;;;;;14.02;100.00;100557.56;5277613;28;20043;-76
2022/10/21 04:57:29;;;;;;;6.45;4.55;;;;;;;14.00;100.00;100553.41;5277340;28;20024;-76
2022/10/21 05:00:01;;;;;;;8.00;5.03;;;;;;;13.92;100.00;100551.56;5271878;28;20021;-76
2022/10/21 05:02:32;;;;;;;6.90;4.45;;;;;;;13.94;100.00;100546.13;5276048;28;20024;-75
2022/10/21 05:05:04;;;;;;;10.88;4.78;;;;;;;13.98;100.00;100540.41;5276891;28;20039;-76
2022/10/21 05:07:35;;;;;;;8.05;4.30;;;;;;;13.94;100.00;100548.78;5275662;28;20028;-75
2022/10/21 05:10:07;;;;;;;8.43;4.05;;;;;;;13.90;100.00;100552.72;5276914;28;20492;-76
2022/10/21 05:12:38;;;;;;;9.20;4.55;;;;;;;13.86;100.00;100560.09;5276688;28;20145;-76
2022/10/21 05:15:10;;;;;;;7.32;4.32;;;;;;;13.87;100.00;100554.69;5276804;28;20036;-75
2022/10/21 05:17:41;;;;;;;7.22;4.65;;;;;;;13.95;100.00;100553.06;5274785;28;20239;-76
2022/10/21 05:20:13;;;;;;;8.13;4.40;;;;;;;13.92;100.00;100551.56;5276345;28;20595;-76
2022/10/21 05:22:44;;;;;;;8.50;4.13;;;;;;;13.83;100.00;100537.56;5273019;28;20024;-76
2022/10/21 05:25:16;;;;;;;7.00;4.05;;;;;;;13.90;100.00;100543.00;5275428;28;20476;-76
2022/10/21 05:27:48;;;;;;;6.43;3.97;;;;;;;13.94;100.00;100535.59;5274824;28;20047;-76
2022/10/21 05:30:19;;;;;;;5.82;3.90;;;;;;;13.98;100.00;100536.94;5277805;28;20029;-75
2022/10/21 05:32:50;;;;;;;5.88;3.80;;;;;;;13.96;100.00;100537.09;5275752;28;20020;-76
2022/10/21 05:35:21;;;;;;;4.57;3.60;;;;;;;13.89;100.00;100517.66;5275389;28;20025;-75
2022/10/21 05:37:53;;;;;;;7.78;3.80;;;;;;;13.98;100.00;100524.63;5274953;28;20028;-75
2022/10/21 05:40:24;;;;;;;6.22;3.95;;;;;;;13.95;100.00;100513.56;5277373;28;20037;-76
2022/10/21 05:42:55;;;;;;;6.88;3.60;;;;;;;13.94;100.00;100515.38;5275215;28;20698;-76
2022/10/21 05:45:26;;;;;;;6.70;3.22;;;;;;;13.88;100.00;100508.09;5276468;28;20116;-76
2022/10/21 05:47:58;;;;;;;6.35;3.45;;;;;;;13.91;100.00;100517.50;5274973;28;20371;-75
2022/10/21 05:50:29;;;;;;;6.22;3.80;;;;;;;13.84;100.00;100504.16;5275690;28;20028;-76
2022/10/21 05:53:00;;;;;;;6.47;3.67;;;;;;;13.79;100.00;100488.84;5272979;28;20067;-75
2022/10/21 05:55:32;;;;;;;6.50;3.92;;;;;;;13.80;100.00;100508.91;5273129;28;20077;-75
2022/10/21 05:58:03;;;;;;;6.47;3.22;;;;;;;13.81;100.00;100507.91;5275279;28;20055;-75
2022/10/21 06:00:34;;;;;;;7.45;3.50;;;;;;;13.69;100.00;100490.75;5273283;28;20089;-76
2022/10/21 06:03:06;;;;;;;6.57;3.28;;;;;;;13.81;100.00;100513.19;5274225;28;20412;-76
2022/10/21 06:05:37;;;;;;;6.35;4.07;;;;;;;13.82;100.00;100512.19;5275330;28;20020;-76
2022/10/21 06:08:08;;;;;;;7.60;3.55;;;;;;;13.85;100.00;100517.16;5270020;28;20037;-76
2022/10/21 06:10:40;;;;;;;9.02;3.50;;;;;;;13.86;100.00;100521.44;5271649;28;20078;-76
2022/10/21 06:13:11;;;;;;;5.60;3.28;;;;;;;13.83;100.00;100519.13;5272322;28;20028;-76
2022/10/21 06:15:42;;;;;;;8.10;3.92;;;;;;;13.87;100.00;100511.75;5273174;28;20056;-76
2022/10/21 06:18:14;;;;;;;7.45;3.90;;;;;;;13.87;100.00;100507.28;5274632;28;20163;-76
2022/10/21 06:20:45;;;;;;;5.78;3.30;;;;;;;13.85;100.00;100503.97;5272993;28;20099;-76
2022/10/21 06:23:16;;;;;;;6.40;3.53;;;;;;;13.83;100.00;100500.69;5274200;28;20123;-76
2022/10/21 06:26:11;;;;;;;6.75;3.60;;;;;;;14.05;100.00;100495.81;5274278;28;20067;-76
2022/10/21 06:28:43;;;;;;;4.93;3.65;;;;;;;13.76;100.00;100510.22;5272410;28;20033;-76
2022/10/21 06:31:17;;;;;;;9.88;3.95;;;;;;;13.78;100.00;100505.59;5267768;28;20078;-76
2022/10/21 06:33:48;;;;;;;6.70;3.42;;;;;;;13.71;100.00;100499.31;5273988;28;20453;-76
2022/10/21 06:36:20;;;;;;;7.53;4.03;;;;;;;13.66;100.00;100501.59;5274555;28;20107;-76
2022/10/21 06:38:51;;;;;;;5.07;3.20;;;;;;;13.74;100.00;100519.25;5276331;28;20099;-76
2022/10/21 06:41:22;;;;;;;6.72;3.40;;;;;;;13.75;100.00;100511.22;5273291;28;20230;-76
2022/10/21 06:43:54;;;;;;;6.10;3.25;;;;;;;13.76;100.00;100525.19;5275204;28;20367;-76
2022/10/21 06:46:25;;;;;;;7.05;3.63;;;;;;;13.71;100.00;100523.00;5276175;28;20021;-76
2022/10/21 06:48:57;;;;;;;5.20;3.60;;;;;;;13.85;100.00;100532.13;5278738;28;20032;-76
2022/10/21 06:51:28;;;;;;;6.45;3.58;;;;;;;13.88;100.00;100537.06;5280587;28;20099;-76
2022/10/21 06:53:59;;;;;;;7.70;3.72;;;;;;;13.92;100.00;100540.22;5279235;28;20043;-76
2022/10/21 06:56:31;;;;;;;6.40;2.92;;;;;;;14.02;100.00;100543.56;5280392;28;20028;-76
2022/10/21 06:59:02;;;;;;;5.80;2.88;;;;;;;14.04;100.00;100549.47;5279809;28;20017;-76
2022/10/21 07:01:35;;;;;;;8.32;3.15;;;;;;;14.09;100.00;100560.34;5280173;28;20478;-76
2022/10/21 07:04:06;;;;;;;;;;;;;;;14.65;100.00;100564.13;5279830;28;20220;-76
2022/10/21 07:06:38;;;;;;;6.40;2.80;;;;;;;14.15;100.00;100554.44;5277336;28;19999;-76
2022/10/21 07:09:09;;;;;;;7.82;3.08;;;;;;;14.23;100.00;100569.44;5278703;28;20032;-76
2022/10/21 07:11:40;;;;;;;8.73;3.28;;;;;;;14.28;100.00;100570.63;5279709;28;20031;-76
2022/10/21 07:14:11;;;;;;;7.20;3.10;;;;;;;14.34;100.00;100575.25;5273230;28;20486;-76
2022/10/21 07:16:43;;;;;;;5.82;2.85;;;;;;;14.30;100.00;100571.28;5269433;28;20081;-76
2022/10/21 07:19:14;;;;;;;6.88;3.20;;;;;;;14.40;100.00;100580.88;5277709;28;20103;-76
2022/10/21 07:21:46;;;;;;;6.88;3.80;;;;;;;14.39;100.00;100574.75;5276686;28;20051;-76
2022/10/21 07:24:17;;;;;;;8.88;3.83;;;;;;;14.43;100.00;100572.63;5275423;28;20448;-76
2022/10/21 07:26:49;;;;;;;8.25;3.35;;;;;;;14.44;100.00;100584.84;5278574;28;20024;-76
2022/10/21 07:29:21;;;;;;;4.53;2.57;;;;;;;14.52;100.00;100576.97;5278600;28;20028;-76
2022/10/21 07:31:52;;;;;;;5.72;3.13;;;;;;;14.54;100.00;100577.63;5277276;28;20382;-76
2022/10/21 07:34:25;;;;;;;6.25;3.13;;;;;;;14.59;100.00;100577.97;5276464;28;20059;-76
2022/10/21 07:36:57;;;;;;;8.68;3.17;;;;;;;14.61;100.00;100581.25;5278443;28;20052;-76
2022/10/21 07:39:28;;;;;;;9.10;3.60;;;;;;;14.63;100.00;100586.38;5277355;28;20068;-76
2022/10/21 07:41:59;;;;;;;5.05;3.08;;;;;;;14.66;100.00;100586.88;5276829;28;20028;-75
2022/10/21 07:44:31;;;;;;;6.95;3.33;;;;;;;14.67;100.00;100592.97;5276746;28;20047;-76
2022/10/21 07:47:02;;;;;;;7.25;3.22;;;;;;;14.74;100.00;100592.16;5276988;28;20032;-76
2022/10/21 07:49:33;;;;;;;7.15;3.38;;;;;;;14.77;100.00;100594.47;5278655;28;20330;-76
2022/10/21 07:52:05;;;;;;;4.85;3.03;;;;;;;14.82;100.00;100599.25;5277453;28;20051;-76
2022/10/21 07:54:36;;;;;;;5.35;3.47;;;;;;;14.89;100.00;100604.69;5275688;28;20384;-76
2022/10/21 07:57:07;;;;;;;6.25;2.97;;;;;;;14.94;100.00;100605.84;5277979;28;20107;-76
2022/10/21 07:59:38;;;;;;;5.03;3.50;;;;;;;14.95;100.00;100609.31;5276883;28;20031;-76
2022/10/21 08:02:13;;;;;;;6.93;3.17;;;;;;;15.02;100.00;100599.75;5275122;28;20035;-76
2022/10/21 08:04:44;;;;;;;8.65;4.18;;;;;;;14.99;100.00;100605.34;5275822;28;20538;-76
2022/10/21 08:07:15;;;;;;;7.55;3.45;;;;;;;15.01;100.00;100606.03;5276268;28;20039;-76
2022/10/21 08:09:47;;;;;;;5.95;3.50;;;;;;;15.03;100.00;100596.13;5277845;28;20028;-76
2022/10/21 08:12:18;;;;;;;8.35;3.83;;;;;;;15.01;100.00;100592.84;5275775;28;20040;-76
2022/10/21 08:14:49;;;;;;;6.82;3.45;;;;;;;14.99;100.00;100590.34;5277007;28;20090;-76
2022/10/21 08:17:21;;;;;;;8.98;3.70;;;;;;;14.97;100.00;100583.59;5275365;28;20062;-76
2022/10/21 08:19:52;;;;;;;6.40;3.40;;;;;;;15.04;100.00;100595.16;5276021;28;20249;-76
2022/10/21 08:22:23;;;;;;;8.20;3.67;;;;;;;15.05;100.00;100583.59;5276638;28;20024;-76
2022/10/21 08:24:55;;;;;;;7.95;3.85;;;;;;;15.05;100.00;100591.53;5278033;28;20597;-76
2022/10/21 08:27:26;;;;;;;8.48;3.67;;;;;;;15.07;100.00;100610.63;5276040;28;20036;-76
2022/10/21 08:29:57;;;;;;;5.60;3.72;;;;;;;15.06;100.00;100617.72;5276201;28;20474;-76
2022/10/21 08:32:28;;;;;;;7.22;3.83;;;;;;;15.07;100.00;100603.53;5275085;28;20038;-76
2022/10/21 08:35:00;;;;;;;8.40;4.00;;;;;;;15.05;100.00;100604.72;5277090;28;20020;-76
2022/10/21 08:37:31;;;;;;;8.15;3.85;;;;;;;15.06;100.00;100611.63;5277196;28;20024;-76
2022/10/21 08:40:03;;;;;;;8.60;4.07;;;;;;;15.07;100.00;100600.91;5275993;28;20043;-76
2022/10/21 08:42:41;;;;;;;7.72;4.07;;;;;;;15.16;100.00;100624.66;5276184;28;20032;-76
2022/10/21 08:46:05;;;;;;;10.25;3.92;;;;;;;15.33;100.00;100627.09;5275535;28;20029;-76
2022/10/21 08:48:46;;;;;;;7.75;3.80;;;;;;;15.31;100.00;100620.38;5253387;28;20123;-75
2022/10/21 08:51:50;;;;;;;8.32;4.20;;;;;;;15.48;100.00;100616.69;5275980;28;20045;-76
2022/10/21 08:54:30;;;;;;;;;;;;;;;15.80;100.00;100612.38;5260573;28;20048;-76
2022/10/21 08:57:01;;;;;;;8.95;4.00;;;;;;;15.23;100.00;100641.50;5276815;28;19954;-76
2022/10/21 08:59:33;;;;;;;9.43;4.22;;;;;;;15.23;100.00;100641.50;5274189;28;20717;-76
2022/10/21 09:02:28;;;;;;;9.25;4.30;;;;;;;15.47;100.00;100638.81;5276505;28;20025;-77
2022/10/21 09:05:24;;;;;;;9.45;4.15;;;;;;;15.43;100.00;100642.78;5270739;28;20089;-76
2022/10/21 09:08:17;;;;;;;8.88;4.18;;;;;;;15.49;100.00;100638.66;5272461;28;20029;-76
2022/10/21 09:11:01;;;;;;;6.93;4.60;;;;;;;15.39;100.00;100643.28;5268631;28;20064;-76
2022/10/21 09:13:57;;;;;;;10.93;4.40;;;;;;;15.49;100.00;100634.22;5275260;28;20028;-76
2022/10/21 09:16:36;;;;;;;7.50;3.40;;;;;;;15.43;100.00;100637.50;5274867;28;20063;-76
2022/10/21 09:19:26;;;;;;;6.93;2.60;;;;;;;15.55;100.00;100617.69;5275706;28;20136;-76
2022/10/21 09:22:10;;;;;;;5.20;2.53;;;;;;;15.56;100.00;100610.59;5272827;28;20482;-76
2022/10/21 09:24:55;;;;;;;6.95;2.13;;;;;;;15.64;100.00;100625.59;5274785;28;20031;-76
2022/10/21 09:27:26;;;;;;;5.10;1.70;;;;;;;15.68;100.00;100626.94;5275394;28;20429;-77
2022/10/21 09:30:06;;;;;;;6.78;2.10;;;;;;;15.88;100.00;100616.81;5275594;28;20013;-77
2022/10/21 09:32:39;;;;;;;4.85;1.90;;;;;;;15.91;100.00;100624.38;5275000;28;20020;-76
2022/10/21 09:35:21;;;;;;;4.38;1.67;;;;;;;16.02;100.00;100613.44;5273969;28;20040;-76
2022/10/21 09:38:02;;;;;;;5.10;1.70;;;;;;;16.18;100.00;100625.78;5275416;28;20086;-77
2022/10/21 09:40:33;;;;;;;4.97;1.77;;;;;;;16.14;100.00;100609.47;5268916;28;20036;-77
2022/10/21 09:43:15;;;;;;;6.05;2.10;;;;;;;16.36;100.00;100620.22;5275921;28;20048;-75
2022/10/21 09:45:47;;;;;;;4.50;1.83;;;;;;;16.21;100.00;100622.78;5275508;28;20103;-77
2022/10/21 09:48:18;;;;;;;4.68;1.70;;;;;;;16.28;100.00;100618.47;5275081;28;20104;-77
2022/10/21 09:51:16;;;;;;;5.95;1.88;;;;;;;16.61;100.00;100618.28;5272973;28;20082;-77
2022/10/21 09:53:55;;;;;;;3.85;2.40;;;;;;;16.48;100.00;100618.88;5270921;28;20295;-77
2022/10/21 09:56:57;;;;;;;5.00;2.20;;;;;;;16.61;100.00;100623.56;5274959;28;20028;-77
2022/10/21 09:59:30;;;;;;;5.60;2.67;;;;;;;16.58;100.00;100629.22;5266559;28;20052;-77
2022/10/21 10:02:13;;;;;;;;;;;;;;;17.16;100.00;100630.47;5275061;28;20485;-77
2022/10/21 10:04:44;;;;;;;6.10;3.10;;;;;;;16.73;100.00;100630.09;5273744;28;19932;-77
2022/10/21 10:07:25;;;;;;;10.82;3.50;;;;;;;16.88;100.00;100630.22;5274036;28;20481;-77
2022/10/21 10:09:56;;;;;;;5.68;3.35;;;;;;;16.75;100.00;100623.69;5272877;28;20344;-77
2022/10/21 10:12:28;;;;;;;6.85;3.80;;;;;;;16.82;100.00;100622.97;5276007;28;20024;-77
2022/10/21 10:15:37;;;;;;;8.10;3.42;;;;;;;17.11;100.00;100633.66;5275291;28;20024;-77
2022/10/21 10:18:20;;;;;;;8.70;3.92;;;;;;;17.10;100.00;100636.50;5274478;28;20028;-77
2022/10/21 10:21:09;;;;;;;10.23;3.95;;;;;;;17.22;100.00;100643.00;5272099;28;20025;-76
2022/10/21 10:23:44;;;;;;;6.88;3.63;;;;;;;17.15;100.00;100645.53;5278860;28;20035;-77
2022/10/21 10:26:19;;;;;;;7.55;3.60;;;;;;;17.17;100.00;100640.91;5279677;28;20040;-77
2022/10/21 10:28:54;;;;;;;5.50;3.67;;;;;;;17.33;100.00;100641.75;5279419;28;20388;-77
2022/10/21 10:31:29;;;;;;;6.28;3.92;;;;;;;17.45;100.00;100637.66;5278115;28;20042;-77
2022/10/21 10:34:05;;;;;;;14.55;5.13;;;;;;;17.49;100.00;100633.66;5280296;28;20028;-77
2022/10/21 10:36:39;;;;;;;7.80;4.43;;;;;;;17.62;100.00;100639.16;5279012;28;20028;-77
2022/10/21 10:39:25;;;;;;;6.13;4.28;;;;;;;17.80;100.00;100641.47;5277262;28;20048;-77
2022/10/21 10:41:57;;;;;;;8.90;5.03;;;;;;;17.77;100.00;100639.22;5278491;28;20021;-77
2022/10/21 10:44:36;;;;;;;7.28;5.00;;;;;;;17.88;100.00;100645.88;5278672;28;20040;-76
2022/10/21 10:47:19;;;;;;;7.78;4.90;;;;;;;17.95;100.00;100644.13;5276792;28;20040;-77
2022/10/21 10:49:50;;;;;;;8.45;5.00;;;;;;;17.92;100.00;100655.13;5274066;28;20029;-77
2022/10/21 10:52:23;;;;;;;8.07;4.65;;;;;;;17.90;100.00;100641.22;5277040;28;20081;-77
2022/10/21 10:55:09;;;;;;;9.70;4.93;;;;;;;18.17;100.00;100647.69;5276661;28;20032;-77
2022/10/21 10:57:46;;;;;;;6.07;3.92;;;;;;;18.12;100.00;100644.78;5276524;28;20159;-77
2022/10/21 11:00:20;;;;;;;10.25;4.15;;;;;;;18.20;100.00;100634.06;5272924;28;20028;-77
2022/10/21 11:02:59;;;;;;;5.95;4.32;;;;;;;18.36;100.00;100643.66;5275922;28;20119;-77
2022/10/21 11:05:35;;;;;;;7.57;4.00;;;;;;;18.34;100.00;100633.22;5278709;28;20485;-77
2022/10/21 11:08:18;;;;;;;8.95;4.47;;;;;;;18.41;100.00;100631.47;5278042;28;20029;-77
2022/10/21 11:10:52;;;;;;;;;;;;;;;18.92;100.00;100619.97;5276270;28;20024;-77
2022/10/21 11:13:24;;;;;;;8.95;5.32;;;;;;;18.49;100.00;100619.94;5279851;28;19916;-77
2022/10/21 11:16:23;;;;;;;10.77;5.35;;;;;;;18.70;100.00;100619.13;5276068;28;20027;-77
2022/10/21 11:19:04;;;;;;;12.00;4.93;;;;;;;18.65;100.00;100611.72;5276343;28;20572;-77
2022/10/21 11:21:47;;;;;;;9.32;4.55;;;;;;;18.58;100.00;100613.50;5275608;28;20082;-77
2022/10/21 11:24:33;;;;;;;6.43;5.03;;;;;;;18.91;100.00;100624.47;5272835;28;20021;-77
2022/10/21 11:27:16;;;;;;;7.05;4.70;;;;;;;18.85;100.00;100629.72;5278370;28;20039;-77
2022/10/21 11:30:02;;;;;;;6.65;5.03;;;;;;;19.16;100.00;100627.53;5277747;28;20038;-77
2022/10/21 11:33:11;;;;;;;6.40;4.60;;;;;;;19.38;100.00;100636.31;5278061;28;20482;-77
2022/10/21 11:35:54;;;;;;;6.97;3.90;;;;;;;19.31;100.00;100642.56;5275981;28;20052;-77
2022/10/21 11:38:53;;;;;;;7.72;3.50;;;;;;;19.55;100.00;100630.72;5277686;28;20036;-77
2022/10/21 11:41:37;;;;;;;5.72;2.45;;;;;;;19.37;100.00;100607.28;5275126;28;20056;-77
2022/10/21 11:44:19;;;;;;;3.72;2.30;;;;;;;19.55;100.00;100626.22;5276679;28;20021;-77
2022/10/21 11:46:58;;;;;;;4.55;2.20;;;;;;;19.55;100.00;100631.53;5276432;28;20029;-77
2022/10/21 11:50:12;;;;;;;3.63;1.90;;;;;;;19.63;100.00;100627.94;5272400;28;20612;-77
2022/10/21 11:52:49;;;;;;;3.33;1.40;;;;;;;19.45;100.00;100625.72;5276576;28;20035;-77